Destinations Bristol Airport

Bristol Airport (EGGD / BRS)

Flights to Bristol Airport

Flight number From ETE Dispatch
SPY-2438 EGPH Edinburgh Airport 01:35

Flights from Bristol Airport

Flight number To ETE Dispatch
SPY-2439 EGPH Edinburgh Airport 01:35
About

Bristol Airport facts

Bristol Airport is located in Bristol at an elevation of 189.6 meters or 622 feet.

Currently, Speedy Airlines serves 2 flights to and from Bristol Airport.

Detailed airport info

Route map

Weather

Current weather

METAR

METAR

Metar data retrieved Sunday, 21 July 2024 at 18:25 UTC

EGGD 211750Z AUTO 26012KT 9999 NCD 17/12 Q1014
Wind Temperature
12 kt 17c